sensor_id;sensor_type;location;lat;lon;timestamp;temperature;humidity
9537;DHT22;4807;48.024;11.726;2023-03-14T00:00:21;8.90;99.90
9537;DHT22;4807;48.024;11.726;2023-03-14T00:03:29;8.80;99.90
9537;DHT22;4807;48.024;11.726;2023-03-14T00:06:37;8.80;99.90
9537;DHT22;4807;48.024;11.726;2023-03-14T00:09:47;8.80;99.90
9537;DHT22;4807;48.024;11.726;2023-03-14T00:12:55;8.90;99.90
9537;DHT22;4807;48.024;11.726;2023-03-14T00:16:04;8.80;99.90
9537;DHT22;4807;48.024;11.726;2023-03-14T00:19:14;8.90;99.90
9537;DHT22;4807;48.024;11.726;2023-03-14T00:22:23;8.80;99.90
9537;DHT22;4807;48.024;11.726;2023-03-14T00:25:33;8.80;99.90
9537;DHT22;4807;48.024;11.726;2023-03-14T00:28:43;8.80;99.90
9537;DHT22;4807;48.024;11.726;2023-03-14T00:31:52;8.70;99.90
9537;DHT22;4807;48.024;11.726;2023-03-14T00:35:00;8.70;99.90
9537;DHT22;4807;48.024;11.726;2023-03-14T00:38:09;8.70;99.90
9537;DHT22;4807;48.024;11.726;2023-03-14T00:41:21;8.70;99.90
9537;DHT22;4807;48.024;11.726;2023-03-14T00:44:30;8.80;99.90
9537;DHT22;4807;48.024;11.726;2023-03-14T00:47:39;8.80;99.90
9537;DHT22;4807;48.024;11.726;2023-03-14T00:50:52;9.10;99.90
9537;DHT22;4807;48.024;11.726;2023-03-14T00:54:00;9.10;99.90
9537;DHT22;4807;48.024;11.726;2023-03-14T00:57:10;9.20;99.90
9537;DHT22;4807;48.024;11.726;2023-03-14T01:00:19;9.30;99.90
9537;DHT22;4807;48.024;11.726;2023-03-14T01:03:27;9.30;99.90
9537;DHT22;4807;48.024;11.726;2023-03-14T01:06:36;9.40;99.90
9537;DHT22;4807;48.024;11.726;2023-03-14T01:09:44;9.40;99.90
9537;DHT22;4807;48.024;11.726;2023-03-14T01:12:54;9.40;99.90
9537;DHT22;4807;48.024;11.726;2023-03-14T01:16:03;9.50;99.90
9537;DHT22;4807;48.024;11.726;2023-03-14T01:19:16;9.50;99.90
9537;DHT22;4807;48.024;11.726;2023-03-14T01:22:24;9.50;99.90
9537;DHT22;4807;48.024;11.726;2023-03-14T01:25:32;9.50;99.90
9537;DHT22;4807;48.024;11.726;2023-03-14T01:28:42;9.50;99.90
9537;DHT22;4807;48.024;11.726;2023-03-14T01:31:50;9.50;99.90
9537;DHT22;4807;48.024;11.726;2023-03-14T01:34:58;9.50;99.90
9537;DHT22;4807;48.024;11.726;2023-03-14T01:38:07;9.40;99.90
9537;DHT22;4807;48.024;11.726;2023-03-14T01:41:16;9.40;99.90
9537;DHT22;4807;48.024;11.726;2023-03-14T01:44:46;9.40;99.90
9537;DHT22;4807;48.024;11.726;2023-03-14T01:47:56;9.20;99.90
9537;DHT22;4807;48.024;11.726;2023-03-14T01:51:06;9.00;99.90
9537;DHT22;4807;48.024;11.726;2023-03-14T01:54:20;9.00;99.90
9537;DHT22;4807;48.024;11.726;2023-03-14T01:57:32;9.00;99.90
9537;DHT22;4807;48.024;11.726;2023-03-14T02:00:45;8.90;99.90
9537;DHT22;4807;48.024;11.726;2023-03-14T02:03:56;8.90;99.90
9537;DHT22;4807;48.024;11.726;2023-03-14T02:07:12;8.90;99.90
9537;DHT22;4807;48.024;11.726;2023-03-14T02:10:38;8.90;99.90
9537;DHT22;4807;48.024;11.726;2023-03-14T02:13:51;8.90;99.90
9537;DHT22;4807;48.024;11.726;2023-03-14T02:17:12;8.90;99.90
9537;DHT22;4807;48.024;11.726;2023-03-14T02:20:47;8.80;99.90
9537;DHT22;4807;48.024;11.726;2023-03-14T02:24:06;8.80;99.90
9537;DHT22;4807;48.024;11.726;2023-03-14T02:27:27;8.80;99.90
9537;DHT22;4807;48.024;11.726;2023-03-14T02:30:35;8.80;99.90
9537;DHT22;4807;48.024;11.726;2023-03-14T02:33:44;8.70;99.90
9537;DHT22;4807;48.024;11.726;2023-03-14T02:36:53;8.70;99.90
9537;DHT22;4807;48.024;11.726;2023-03-14T02:40:05;8.70;99.90
9537;DHT22;4807;48.024;11.726;2023-03-14T02:43:17;8.70;99.90
9537;DHT22;4807;48.024;11.726;2023-03-14T02:46:31;8.60;99.90
9537;DHT22;4807;48.024;11.726;2023-03-14T02:49:40;8.50;99.90
9537;DHT22;4807;48.024;11.726;2023-03-14T02:52:48;8.50;99.90
9537;DHT22;4807;48.024;11.726;2023-03-14T02:55:58;8.50;99.90
9537;DHT22;4807;48.024;11.726;2023-03-14T02:59:10;8.40;99.90
9537;DHT22;4807;48.024;11.726;2023-03-14T03:02:27;8.40;99.90
9537;DHT22;4807;48.024;11.726;2023-03-14T03:05:35;8.30;99.90
9537;DHT22;4807;48.024;11.726;2023-03-14T03:08:44;8.20;99.90
9537;DHT22;4807;48.024;11.726;2023-03-14T03:11:52;8.30;99.90
9537;DHT22;4807;48.024;11.726;2023-03-14T03:15:05;8.30;99.90
9537;DHT22;4807;48.024;11.726;2023-03-14T03:18:16;8.30;99.90
9537;DHT22;4807;48.024;11.726;2023-03-14T03:21:25;8.20;99.90
9537;DHT22;4807;48.024;11.726;2023-03-14T03:24:33;8.00;99.90
9537;DHT22;4807;48.024;11.726;2023-03-14T03:27:42;8.00;99.90
9537;DHT22;4807;48.024;11.726;2023-03-14T03:30:52;7.80;99.90
9537;DHT22;4807;48.024;11.726;2023-03-14T03:34:01;7.80;99.90
9537;DHT22;4807;48.024;11.726;2023-03-14T03:37:10;7.80;99.90
9537;DHT22;4807;48.024;11.726;2023-03-14T03:40:20;7.80;99.90
9537;DHT22;4807;48.024;11.726;2023-03-14T03:43:29;7.80;99.90
9537;DHT22;4807;48.024;11.726;2023-03-14T03:46:40;7.80;99.90
9537;DHT22;4807;48.024;11.726;2023-03-14T03:49:49;7.80;99.90
9537;DHT22;4807;48.024;11.726;2023-03-14T03:52:57;7.80;99.90
9537;DHT22;4807;48.024;11.726;2023-03-14T03:56:07;7.80;99.90
9537;DHT22;4807;48.024;11.726;2023-03-14T03:59:17;7.80;99.90
9537;DHT22;4807;48.024;11.726;2023-03-14T04:02:27;7.70;99.90
9537;DHT22;4807;48.024;11.726;2023-03-14T04:05:35;7.70;99.90
9537;DHT22;4807;48.024;11.726;2023-03-14T04:08:48;7.60;99.90
9537;DHT22;4807;48.024;11.726;2023-03-14T04:12:08;7.60;99.90
9537;DHT22;4807;48.024;11.726;2023-03-14T04:15:36;7.60;99.90
9537;DHT22;4807;48.024;11.726;2023-03-14T04:18:53;7.60;99.90
9537;DHT22;4807;48.024;11.726;2023-03-14T04:22:02;7.50;99.90
9537;DHT22;4807;48.024;11.726;2023-03-14T04:25:16;7.50;99.90
9537;DHT22;4807;48.024;11.726;2023-03-14T04:28:31;7.60;99.90
9537;DHT22;4807;48.024;11.726;2023-03-14T04:31:43;7.50;99.90
9537;DHT22;4807;48.024;11.726;2023-03-14T04:34:53;7.50;99.90
9537;DHT22;4807;48.024;11.726;2023-03-14T04:38:01;7.50;99.90
9537;DHT22;4807;48.024;11.726;2023-03-14T04:41:12;7.50;99.90
9537;DHT22;4807;48.024;11.726;2023-03-14T04:44:23;7.50;99.90
9537;DHT22;4807;48.024;11.726;2023-03-14T04:47:33;7.40;99.90
9537;DHT22;4807;48.024;11.726;2023-03-14T04:50:44;7.40;99.90
9537;DHT22;4807;48.024;11.726;2023-03-14T04:53:54;7.40;99.90
9537;DHT22;4807;48.024;11.726;2023-03-14T04:57:04;7.40;99.90
9537;DHT22;4807;48.024;11.726;2023-03-14T05:00:14;7.40;99.90
9537;DHT22;4807;48.024;11.726;2023-03-14T05:04:01;7.30;99.90
9537;DHT22;4807;48.024;11.726;2023-03-14T05:07:28;7.40;99.90
9537;DHT22;4807;48.024;11.726;2023-03-14T05:10:57;7.30;99.90
9537;DHT22;4807;48.024;11.726;2023-03-14T05:14:29;7.30;99.90
9537;DHT22;4807;48.024;11.726;2023-03-14T05:17:52;7.30;99.90
9537;DHT22;4807;48.024;11.726;2023-03-14T05:21:19;7.30;99.90
9537;DHT22;4807;48.024;11.726;2023-03-14T05:24:55;7.30;99.90
9537;DHT22;4807;48.024;11.726;2023-03-14T05:28:24;7.30;99.90
9537;DHT22;4807;48.024;11.726;2023-03-14T05:32:04;7.20;99.90
9537;DHT22;4807;48.024;11.726;2023-03-14T05:35:30;7.20;99.90
9537;DHT22;4807;48.024;11.726;2023-03-14T05:39:09;7.20;99.90
9537;DHT22;4807;48.024;11.726;2023-03-14T05:42:38;7.30;99.90
9537;DHT22;4807;48.024;11.726;2023-03-14T05:46:06;7.30;99.90
9537;DHT22;4807;48.024;11.726;2023-03-14T05:49:41;7.30;99.90
9537;DHT22;4807;48.024;11.726;2023-03-14T05:52:56;7.20;99.90
9537;DHT22;4807;48.024;11.726;2023-03-14T05:56:31;7.20;99.90
9537;DHT22;4807;48.024;11.726;2023-03-14T05:59:53;7.30;99.90
9537;DHT22;4807;48.024;11.726;2023-03-14T06:03:18;7.20;99.90
9537;DHT22;4807;48.024;11.726;2023-03-14T06:06:28;7.20;99.90
9537;DHT22;4807;48.024;11.726;2023-03-14T06:09:38;7.20;99.90
9537;DHT22;4807;48.024;11.726;2023-03-14T06:12:48;7.20;99.90
9537;DHT22;4807;48.024;11.726;2023-03-14T06:15:57;7.30;99.90
9537;DHT22;4807;48.024;11.726;2023-03-14T06:19:06;7.30;99.90
9537;DHT22;4807;48.024;11.726;2023-03-14T06:22:15;7.20;99.90
9537;DHT22;4807;48.024;11.726;2023-03-14T06:25:25;7.20;99.90
9537;DHT22;4807;48.024;11.726;2023-03-14T06:28:36;7.20;99.90
9537;DHT22;4807;48.024;11.726;2023-03-14T06:31:45;7.20;99.90
9537;DHT22;4807;48.024;11.726;2023-03-14T06:34:57;7.30;99.90
9537;DHT22;4807;48.024;11.726;2023-03-14T06:38:09;7.20;99.90
9537;DHT22;4807;48.024;11.726;2023-03-14T06:41:18;7.30;99.90
9537;DHT22;4807;48.024;11.726;2023-03-14T06:44:28;7.40;99.90
9537;DHT22;4807;48.024;11.726;2023-03-14T06:47:38;7.50;99.90
9537;DHT22;4807;48.024;11.726;2023-03-14T06:50:48;7.80;99.90
9537;DHT22;4807;48.024;11.726;2023-03-14T06:53:57;7.80;99.90
9537;DHT22;4807;48.024;11.726;2023-03-14T06:57:07;7.90;99.90
9537;DHT22;4807;48.024;11.726;2023-03-14T07:00:17;8.00;99.90
9537;DHT22;4807;48.024;11.726;2023-03-14T07:03:28;8.10;99.90
9537;DHT22;4807;48.024;11.726;2023-03-14T07:06:36;8.10;99.90
9537;DHT22;4807;48.024;11.726;2023-03-14T07:09:46;8.00;99.90
9537;DHT22;4807;48.024;11.726;2023-03-14T07:12:54;7.80;99.90
9537;DHT22;4807;48.024;11.726;2023-03-14T07:16:07;7.80;99.90
9537;DHT22;4807;48.024;11.726;2023-03-14T07:19:18;7.80;99.90
9537;DHT22;4807;48.024;11.726;2023-03-14T07:22:26;7.80;99.90
9537;DHT22;4807;48.024;11.726;2023-03-14T07:25:35;7.80;99.90
9537;DHT22;4807;48.024;11.726;2023-03-14T07:28:43;7.80;99.90
9537;DHT22;4807;48.024;11.726;2023-03-14T07:31:55;7.80;99.90
9537;DHT22;4807;48.024;11.726;2023-03-14T07:35:07;7.90;99.90
9537;DHT22;4807;48.024;11.726;2023-03-14T07:38:18;8.00;99.90
9537;DHT22;4807;48.024;11.726;2023-03-14T07:41:47;8.10;99.90
9537;DHT22;4807;48.024;11.726;2023-03-14T07:45:05;8.20;99.90
9537;DHT22;4807;48.024;11.726;2023-03-14T07:48:14;8.40;99.90
9537;DHT22;4807;48.024;11.726;2023-03-14T07:51:24;8.60;99.90
9537;DHT22;4807;48.024;11.726;2023-03-14T07:54:33;8.70;99.90
9537;DHT22;4807;48.024;11.726;2023-03-14T07:57:41;8.90;99.90
9537;DHT22;4807;48.024;11.726;2023-03-14T08:00:50;9.20;99.90
9537;DHT22;4807;48.024;11.726;2023-03-14T08:03:59;9.20;99.90
9537;DHT22;4807;48.024;11.726;2023-03-14T08:07:09;9.40;99.90
9537;DHT22;4807;48.024;11.726;2023-03-14T08:10:17;9.50;99.90
9537;DHT22;4807;48.024;11.726;2023-03-14T08:13:28;9.60;99.90
9537;DHT22;4807;48.024;11.726;2023-03-14T08:16:37;9.60;99.90
9537;DHT22;4807;48.024;11.726;2023-03-14T08:19:45;9.60;99.90
9537;DHT22;4807;48.024;11.726;2023-03-14T08:22:56;9.60;99.90
9537;DHT22;4807;48.024;11.726;2023-03-14T08:26:05;9.60;99.90
9537;DHT22;4807;48.024;11.726;2023-03-14T08:29:14;9.60;99.90
9537;DHT22;4807;48.024;11.726;2023-03-14T08:32:25;9.60;99.90
9537;DHT22;4807;48.024;11.726;2023-03-14T08:35:34;9.50;99.90
9537;DHT22;4807;48.024;11.726;2023-03-14T08:38:43;9.60;99.90
9537;DHT22;4807;48.024;11.726;2023-03-14T08:41:52;9.70;99.90
9537;DHT22;4807;48.024;11.726;2023-03-14T08:45:00;9.90;99.90
9537;DHT22;4807;48.024;11.726;2023-03-14T08:48:09;9.80;99.90
9537;DHT22;4807;48.024;11.726;2023-03-14T08:51:17;10.00;99.90
9537;DHT22;4807;48.024;11.726;2023-03-14T08:54:26;9.90;99.90
9537;DHT22;4807;48.024;11.726;2023-03-14T08:57:35;9.90;99.90
9537;DHT22;4807;48.024;11.726;2023-03-14T09:00:43;9.80;99.90
9537;DHT22;4807;48.024;11.726;2023-03-14T09:03:51;9.80;99.90
9537;DHT22;4807;48.024;11.726;2023-03-14T09:07:01;9.70;99.90
9537;DHT22;4807;48.024;11.726;2023-03-14T09:10:11;9.60;99.90
9537;DHT22;4807;48.024;11.726;2023-03-14T09:13:19;9.50;99.90
9537;DHT22;4807;48.024;11.726;2023-03-14T09:16:27;9.40;99.90
9537;DHT22;4807;48.024;11.726;2023-03-14T09:19:36;9.40;99.90
9537;DHT22;4807;48.024;11.726;2023-03-14T09:22:44;9.40;99.90
9537;DHT22;4807;48.024;11.726;2023-03-14T09:25:55;9.30;99.90
9537;DHT22;4807;48.024;11.726;2023-03-14T09:29:04;9.30;99.90
9537;DHT22;4807;48.024;11.726;2023-03-14T09:32:12;9.20;99.90
9537;DHT22;4807;48.024;11.726;2023-03-14T09:35:20;9.10;99.90
9537;DHT22;4807;48.024;11.726;2023-03-14T09:38:29;9.10;99.90
9537;DHT22;4807;48.024;11.726;2023-03-14T09:41:41;9.10;99.90
9537;DHT22;4807;48.024;11.726;2023-03-14T09:44:54;9.10;99.90
9537;DHT22;4807;48.024;11.726;2023-03-14T09:48:05;9.10;99.90
9537;DHT22;4807;48.024;11.726;2023-03-14T09:51:18;9.10;99.90
9537;DHT22;4807;48.024;11.726;2023-03-14T09:54:32;9.00;99.90
9537;DHT22;4807;48.024;11.726;2023-03-14T09:57:45;9.10;99.90
9537;DHT22;4807;48.024;11.726;2023-03-14T10:00:56;9.20;99.90
9537;DHT22;4807;48.024;11.726;2023-03-14T10:04:14;9.10;99.90
9537;DHT22;4807;48.024;11.726;2023-03-14T10:07:28;9.30;99.90
9537;DHT22;4807;48.024;11.726;2023-03-14T10:10:38;9.60;99.90
9537;DHT22;4807;48.024;11.726;2023-03-14T10:13:52;9.70;99.90
9537;DHT22;4807;48.024;11.726;2023-03-14T10:17:13;9.90;99.90
9537;DHT22;4807;48.024;11.726;2023-03-14T10:20:31;10.10;99.90
9537;DHT22;4807;48.024;11.726;2023-03-14T10:23:41;10.40;99.90
9537;DHT22;4807;48.024;11.726;2023-03-14T10:26:52;10.70;99.90
9537;DHT22;4807;48.024;11.726;2023-03-14T10:30:05;10.90;99.90
9537;DHT22;4807;48.024;11.726;2023-03-14T10:33:21;11.00;99.90
9537;DHT22;4807;48.024;11.726;2023-03-14T10:36:32;11.30;99.90
9537;DHT22;4807;48.024;11.726;2023-03-14T10:39:47;11.90;99.90
9537;DHT22;4807;48.024;11.726;2023-03-14T10:42:59;12.60;99.90
9537;DHT22;4807;48.024;11.726;2023-03-14T10:46:14;13.10;99.90
9537;DHT22;4807;48.024;11.726;2023-03-14T10:49:43;13.70;99.90
9537;DHT22;4807;48.024;11.726;2023-03-14T10:52:53;13.90;98.20
9537;DHT22;4807;48.024;11.726;2023-03-14T10:56:12;14.20;98.60
9537;DHT22;4807;48.024;11.726;2023-03-14T10:59:21;14.30;96.90
9537;DHT22;4807;48.024;11.726;2023-03-14T11:02:48;14.40;96.20
9537;DHT22;4807;48.024;11.726;2023-03-14T11:06:09;14.40;96.60
9537;DHT22;4807;48.024;11.726;2023-03-14T11:09:28;14.50;95.20
9537;DHT22;4807;48.024;11.726;2023-03-14T11:12:52;14.60;93.60
9537;DHT22;4807;48.024;11.726;2023-03-14T11:16:20;14.30;93.40
9537;DHT22;4807;48.024;11.726;2023-03-14T11:19:48;14.60;94.60
9537;DHT22;4807;48.024;11.726;2023-03-14T11:23:08;14.70;92.80
9537;DHT22;4807;48.024;11.726;2023-03-14T11:26:27;14.50;92.20
9537;DHT22;4807;48.024;11.726;2023-03-14T11:29:49;14.40;92.30
9537;DHT22;4807;48.024;11.726;2023-03-14T11:33:04;14.10;92.10
9537;DHT22;4807;48.024;11.726;2023-03-14T11:36:29;13.50;92.80
9537;DHT22;4807;48.024;11.726;2023-03-14T11:39:41;13.20;93.60
9537;DHT22;4807;48.024;11.726;2023-03-14T11:42:59;12.90;94.50
9537;DHT22;4807;48.024;11.726;2023-03-14T11:46:10;13.00;93.90
9537;DHT22;4807;48.024;11.726;2023-03-14T11:49:33;13.40;93.80
9537;DHT22;4807;48.024;11.726;2023-03-14T11:52:50;13.70;92.60
9537;DHT22;4807;48.024;11.726;2023-03-14T11:56:11;13.80;92.30
9537;DHT22;4807;48.024;11.726;2023-03-14T11:59:28;13.90;91.30
9537;DHT22;4807;48.024;11.726;2023-03-14T12:02:45;13.80;91.00
9537;DHT22;4807;48.024;11.726;2023-03-14T12:06:04;13.70;91.80
9537;DHT22;4807;48.024;11.726;2023-03-14T12:09:23;13.70;92.00
9537;DHT22;4807;48.024;11.726;2023-03-14T12:12:32;13.60;91.60
9537;DHT22;4807;48.024;11.726;2023-03-14T12:15:47;13.60;90.80
9537;DHT22;4807;48.024;11.726;2023-03-14T12:22:42;13.90;86.30
9537;DHT22;4807;48.024;11.726;2023-03-14T12:26:13;13.90;87.60
9537;DHT22;4807;48.024;11.726;2023-03-14T12:29:23;14.00;88.30
9537;DHT22;4807;48.024;11.726;2023-03-14T12:32:32;14.10;86.30
9537;DHT22;4807;48.024;11.726;2023-03-14T12:35:41;14.00;86.70
9537;DHT22;4807;48.024;11.726;2023-03-14T12:39:00;13.90;87.00
9537;DHT22;4807;48.024;11.726;2023-03-14T12:42:22;13.80;86.80
9537;DHT22;4807;48.024;11.726;2023-03-14T12:46:07;13.70;87.20
9537;DHT22;4807;48.024;11.726;2023-03-14T12:49:29;13.90;87.50
9537;DHT22;4807;48.024;11.726;2023-03-14T12:52:49;14.20;87.40
9537;DHT22;4807;48.024;11.726;2023-03-14T12:56:21;14.10;88.40
9537;DHT22;4807;48.024;11.726;2023-03-14T12:59:34;13.70;90.50
9537;DHT22;4807;48.024;11.726;2023-03-14T13:02:45;13.50;90.60
9537;DHT22;4807;48.024;11.726;2023-03-14T13:05:57;13.40;90.30
9537;DHT22;4807;48.024;11.726;2023-03-14T13:09:35;13.40;90.50
9537;DHT22;4807;48.024;11.726;2023-03-14T13:13:02;13.10;90.50
9537;DHT22;4807;48.024;11.726;2023-03-14T13:16:23;12.60;90.20
9537;DHT22;4807;48.024;11.726;2023-03-14T13:19:33;12.40;90.50
9537;DHT22;4807;48.024;11.726;2023-03-14T13:22:47;12.70;90.80
9537;DHT22;4807;48.024;11.726;2023-03-14T13:25:56;12.70;90.30
9537;DHT22;4807;48.024;11.726;2023-03-14T13:29:15;12.80;90.60
9537;DHT22;4807;48.024;11.726;2023-03-14T13:32:28;12.90;90.10
9537;DHT22;4807;48.024;11.726;2023-03-14T13:35:50;12.80;88.90
9537;DHT22;4807;48.024;11.726;2023-03-14T13:39:06;12.30;89.00
9537;DHT22;4807;48.024;11.726;2023-03-14T13:42:19;12.10;90.20
9537;DHT22;4807;48.024;11.726;2023-03-14T13:45:27;11.90;91.10
9537;DHT22;4807;48.024;11.726;2023-03-14T13:48:42;11.80;91.20
9537;DHT22;4807;48.024;11.726;2023-03-14T13:51:52;11.50;92.00
9537;DHT22;4807;48.024;11.726;2023-03-14T13:55:02;11.30;93.70
9537;DHT22;4807;48.024;11.726;2023-03-14T13:58:24;11.00;94.90
9537;DHT22;4807;48.024;11.726;2023-03-14T14:01:36;10.50;95.80
9537;DHT22;4807;48.024;11.726;2023-03-14T14:04:57;10.10;97.60
9537;DHT22;4807;48.024;11.726;2023-03-14T14:08:06;10.10;97.60
9537;DHT22;4807;48.024;11.726;2023-03-14T14:11:33;10.00;97.80
9537;DHT22;4807;48.024;11.726;2023-03-14T14:15:02;9.70;98.80
9537;DHT22;4807;48.024;11.726;2023-03-14T14:18:17;9.90;99.90
9537;DHT22;4807;48.024;11.726;2023-03-14T14:21:29;9.30;99.90
9537;DHT22;4807;48.024;11.726;2023-03-14T14:24:38;9.20;99.90
9537;DHT22;4807;48.024;11.726;2023-03-14T14:27:48;9.10;99.90
9537;DHT22;4807;48.024;11.726;2023-03-14T14:31:04;8.80;99.90
9537;DHT22;4807;48.024;11.726;2023-03-14T14:34:24;8.80;99.90
9537;DHT22;4807;48.024;11.726;2023-03-14T14:37:41;8.60;99.90
9537;DHT22;4807;48.024;11.726;2023-03-14T14:40:53;8.20;99.90
9537;DHT22;4807;48.024;11.726;2023-03-14T14:44:07;8.20;99.90
9537;DHT22;4807;48.024;11.726;2023-03-14T14:47:20;8.00;99.90
9537;DHT22;4807;48.024;11.726;2023-03-14T14:50:33;7.90;99.90
9537;DHT22;4807;48.024;11.726;2023-03-14T14:53:45;7.80;99.90
9537;DHT22;4807;48.024;11.726;2023-03-14T14:57:02;7.70;99.90
9537;DHT22;4807;48.024;11.726;2023-03-14T15:00:18;7.50;99.90
9537;DHT22;4807;48.024;11.726;2023-03-14T15:03:30;7.40;99.90
9537;DHT22;4807;48.024;11.726;2023-03-14T15:06:43;7.30;99.90
9537;DHT22;4807;48.024;11.726;2023-03-14T15:09:55;7.20;99.90
9537;DHT22;4807;48.024;11.726;2023-03-14T15:13:03;7.00;99.90
9537;DHT22;4807;48.024;11.726;2023-03-14T15:16:12;7.00;99.90
9537;DHT22;4807;48.024;11.726;2023-03-14T15:19:24;7.10;99.90
9537;DHT22;4807;48.024;11.726;2023-03-14T15:22:33;7.20;99.90
9537;DHT22;4807;48.024;11.726;2023-03-14T15:25:43;7.20;99.90
9537;DHT22;4807;48.024;11.726;2023-03-14T15:29:02;7.30;99.90
9537;DHT22;4807;48.024;11.726;2023-03-14T15:32:12;7.50;99.90
9537;DHT22;4807;48.024;11.726;2023-03-14T15:35:21;7.50;99.90
9537;DHT22;4807;48.024;11.726;2023-03-14T15:38:30;7.60;99.90
9537;DHT22;4807;48.024;11.726;2023-03-14T15:41:39;7.50;99.90
9537;DHT22;4807;48.024;11.726;2023-03-14T15:44:47;7.40;99.90
9537;DHT22;4807;48.024;11.726;2023-03-14T15:47:55;7.40;99.90
9537;DHT22;4807;48.024;11.726;2023-03-14T15:51:04;7.40;99.90
9537;DHT22;4807;48.024;11.726;2023-03-14T15:54:13;7.40;99.90
9537;DHT22;4807;48.024;11.726;2023-03-14T15:57:22;7.50;99.90
9537;DHT22;4807;48.024;11.726;2023-03-14T16:00:31;7.60;99.90
9537;DHT22;4807;48.024;11.726;2023-03-14T16:03:41;7.50;99.90
9537;DHT22;4807;48.024;11.726;2023-03-14T16:06:51;7.50;99.90
9537;DHT22;4807;48.024;11.726;2023-03-14T16:09:59;7.40;99.90
9537;DHT22;4807;48.024;11.726;2023-03-14T16:13:09;7.30;99.90
9537;DHT22;4807;48.024;11.726;2023-03-14T16:16:17;7.00;99.90
9537;DHT22;4807;48.024;11.726;2023-03-14T16:19:26;6.80;99.90
9537;DHT22;4807;48.024;11.726;2023-03-14T16:22:37;6.70;99.90
9537;DHT22;4807;48.024;11.726;2023-03-14T16:25:45;6.60;99.90
9537;DHT22;4807;48.024;11.726;2023-03-14T16:28:55;6.60;99.90
9537;DHT22;4807;48.024;11.726;2023-03-14T16:32:04;6.50;99.90
9537;DHT22;4807;48.024;11.726;2023-03-14T16:35:13;6.50;99.90
9537;DHT22;4807;48.024;11.726;2023-03-14T16:38:22;6.40;99.90
9537;DHT22;4807;48.024;11.726;2023-03-14T16:41:30;6.40;99.90
9537;DHT22;4807;48.024;11.726;2023-03-14T16:44:41;6.30;99.90
9537;DHT22;4807;48.024;11.726;2023-03-14T16:47:49;6.30;99.90
9537;DHT22;4807;48.024;11.726;2023-03-14T16:50:57;6.40;99.90
9537;DHT22;4807;48.024;11.726;2023-03-14T16:54:06;6.40;99.90
9537;DHT22;4807;48.024;11.726;2023-03-14T16:57:14;6.40;99.90
9537;DHT22;4807;48.024;11.726;2023-03-14T17:00:24;6.40;99.90
9537;DHT22;4807;48.024;11.726;2023-03-14T17:03:33;6.40;99.90
9537;DHT22;4807;48.024;11.726;2023-03-14T17:06:41;6.40;99.90
9537;DHT22;4807;48.024;11.726;2023-03-14T17:09:51;6.10;99.90
9537;DHT22;4807;48.024;11.726;2023-03-14T17:13:00;5.80;99.90
9537;DHT22;4807;48.024;11.726;2023-03-14T17:16:10;5.70;99.90
9537;DHT22;4807;48.024;11.726;2023-03-14T17:19:19;5.60;99.90
9537;DHT22;4807;48.024;11.726;2023-03-14T17:22:28;5.70;99.90
9537;DHT22;4807;48.024;11.726;2023-03-14T17:25:38;5.70;99.90
9537;DHT22;4807;48.024;11.726;2023-03-14T17:28:47;5.80;99.90
9537;DHT22;4807;48.024;11.726;2023-03-14T17:31:56;5.80;99.90
9537;DHT22;4807;48.024;11.726;2023-03-14T17:35:05;5.80;99.90
9537;DHT22;4807;48.024;11.726;2023-03-14T17:38:13;5.80;99.90
9537;DHT22;4807;48.024;11.726;2023-03-14T17:41:21;5.70;99.50
9537;DHT22;4807;48.024;11.726;2023-03-14T17:44:29;5.60;98.60
9537;DHT22;4807;48.024;11.726;2023-03-14T17:47:40;5.50;98.30
9537;DHT22;4807;48.024;11.726;2023-03-14T17:50:48;5.30;97.50
9537;DHT22;4807;48.024;11.726;2023-03-14T17:53:58;5.30;97.70
9537;DHT22;4807;48.024;11.726;2023-03-14T17:57:07;5.30;97.40
9537;DHT22;4807;48.024;11.726;2023-03-14T18:00:16;5.30;97.20
9537;DHT22;4807;48.024;11.726;2023-03-14T18:03:27;5.20;97.20
9537;DHT22;4807;48.024;11.726;2023-03-14T18:06:37;5.10;97.50
9537;DHT22;4807;48.024;11.726;2023-03-14T18:09:46;5.10;97.50
9537;DHT22;4807;48.024;11.726;2023-03-14T18:12:55;5.00;98.20
9537;DHT22;4807;48.024;11.726;2023-03-14T18:16:04;5.00;98.30
9537;DHT22;4807;48.024;11.726;2023-03-14T18:19:16;4.90;98.70
9537;DHT22;4807;48.024;11.726;2023-03-14T18:22:24;4.90;99.30
9537;DHT22;4807;48.024;11.726;2023-03-14T18:25:32;4.70;99.90
9537;DHT22;4807;48.024;11.726;2023-03-14T18:28:45;4.60;99.90
9537;DHT22;4807;48.024;11.726;2023-03-14T18:31:55;4.70;99.90
9537;DHT22;4807;48.024;11.726;2023-03-14T18:35:07;4.60;99.90
9537;DHT22;4807;48.024;11.726;2023-03-14T18:38:15;4.50;99.90
9537;DHT22;4807;48.024;11.726;2023-03-14T18:41:25;4.40;99.90
9537;DHT22;4807;48.024;11.726;2023-03-14T18:44:33;4.30;99.90
9537;DHT22;4807;48.024;11.726;2023-03-14T18:47:41;4.30;99.90
9537;DHT22;4807;48.024;11.726;2023-03-14T18:50:51;4.40;99.90
9537;DHT22;4807;48.024;11.726;2023-03-14T18:54:00;4.30;99.90
9537;DHT22;4807;48.024;11.726;2023-03-14T18:57:15;4.20;99.90
9537;DHT22;4807;48.024;11.726;2023-03-14T19:00:24;4.30;99.90
9537;DHT22;4807;48.024;11.726;2023-03-14T19:03:34;4.30;99.90
9537;DHT22;4807;48.024;11.726;2023-03-14T19:06:45;4.30;99.90
9537;DHT22;4807;48.024;11.726;2023-03-14T19:09:53;4.40;99.90
9537;DHT22;4807;48.024;11.726;2023-03-14T19:13:01;4.30;99.90
9537;DHT22;4807;48.024;11.726;2023-03-14T19:16:11;4.30;99.90
9537;DHT22;4807;48.024;11.726;2023-03-14T19:19:21;4.30;99.90
9537;DHT22;4807;48.024;11.726;2023-03-14T19:22:31;4.50;99.90
9537;DHT22;4807;48.024;11.726;2023-03-14T19:25:40;4.70;99.90
9537;DHT22;4807;48.024;11.726;2023-03-14T19:28:49;5.00;99.90
9537;DHT22;4807;48.024;11.726;2023-03-14T19:31:59;4.80;99.90
9537;DHT22;4807;48.024;11.726;2023-03-14T19:35:08;4.80;99.90
9537;DHT22;4807;48.024;11.726;2023-03-14T19:38:18;4.80;99.90
9537;DHT22;4807;48.024;11.726;2023-03-14T19:41:27;4.80;99.90
9537;DHT22;4807;48.024;11.726;2023-03-14T19:44:35;4.80;99.90
9537;DHT22;4807;48.024;11.726;2023-03-14T19:47:44;4.90;99.90
9537;DHT22;4807;48.024;11.726;2023-03-14T19:50:52;4.80;99.90
9537;DHT22;4807;48.024;11.726;2023-03-14T19:54:02;4.70;99.90
9537;DHT22;4807;48.024;11.726;2023-03-14T19:57:11;4.70;99.90
9537;DHT22;4807;48.024;11.726;2023-03-14T20:00:20;4.70;99.90
9537;DHT22;4807;48.024;11.726;2023-03-14T20:03:29;4.80;99.90
9537;DHT22;4807;48.024;11.726;2023-03-14T20:06:37;4.80;99.90
9537;DHT22;4807;48.024;11.726;2023-03-14T20:09:47;4.90;99.90
9537;DHT22;4807;48.024;11.726;2023-03-14T20:12:55;5.10;99.90
9537;DHT22;4807;48.024;11.726;2023-03-14T20:16:06;4.90;99.90
9537;DHT22;4807;48.024;11.726;2023-03-14T20:19:16;4.90;99.90
9537;DHT22;4807;48.024;11.726;2023-03-14T20:22:25;4.90;99.90
9537;DHT22;4807;48.024;11.726;2023-03-14T20:25:36;5.00;99.90
9537;DHT22;4807;48.024;11.726;2023-03-14T20:28:45;5.00;99.90
9537;DHT22;4807;48.024;11.726;2023-03-14T20:31:53;5.00;99.90
9537;DHT22;4807;48.024;11.726;2023-03-14T20:35:02;5.20;99.90
9537;DHT22;4807;48.024;11.726;2023-03-14T20:38:10;5.00;99.90
9537;DHT22;4807;48.024;11.726;2023-03-14T20:41:20;5.00;99.90
9537;DHT22;4807;48.024;11.726;2023-03-14T20:44:28;5.10;99.90
9537;DHT22;4807;48.024;11.726;2023-03-14T20:47:37;5.10;99.90
9537;DHT22;4807;48.024;11.726;2023-03-14T20:50:45;5.20;99.90
9537;DHT22;4807;48.024;11.726;2023-03-14T20:53:53;5.10;99.90
9537;DHT22;4807;48.024;11.726;2023-03-14T20:57:03;5.10;99.90